Time;durP1;ratioP1;P1;durP2;ratioP2;P2;SDS_P1;SDS_P2;PMS_P1;PMS_P2;Temp;Humidity;BMP_temperature;BMP_pressure;BME280_temperature;BME280_humidity;BME280_pressure;Samples;Min_cycle;Max_cycle;Signal;HPM_P1;HPM_P2
2022/09/27 06:01:09;;;;;;;2.30;1.37;;;8.40;99.90;;;;;;5074680;28;20874;-83
2022/09/27 06:03:35;;;;;;;3.67;1.30;;;8.50;99.90;;;;;;5073222;28;20178;-83
2022/09/27 06:06:04;;;;;;;1.53;1.30;;;8.50;99.90;;;;;;5071575;28;20205;-82
2022/09/27 06:08:36;;;;;;;1.33;0.80;;;8.50;99.90;;;;;;5072825;28;20170;-84
2022/09/27 06:11:05;;;;;;;2.73;1.20;;;8.60;99.90;;;;;;5073131;28;20525;-83
2022/09/27 06:13:39;;;;;;;1.47;1.20;;;8.70;99.90;;;;;;5074141;28;20201;-82
2022/09/27 06:16:07;;;;;;;2.47;1.67;;;8.70;99.90;;;;;;5071074;28;20536;-83
2022/09/27 06:18:33;;;;;;;3.13;2.73;;;8.70;99.90;;;;;;5071505;28;20175;-82
2022/09/27 06:45:49;;;;;;;1.30;0.90;;;8.60;99.90;;;;;;5075223;28;20555;-84
2022/09/27 06:48:16;;;;;;;1.60;1.10;;;8.70;99.90;;;;;;5072704;28;20685;-84
2022/09/27 06:50:43;;;;;;;2.50;0.80;;;8.70;99.90;;;;;;5073841;28;20174;-84
2022/09/27 06:53:11;;;;;;;2.63;0.90;;;8.70;99.90;;;;;;5073040;28;20175;-83
2022/09/27 06:55:37;;;;;;;4.60;3.07;;;8.80;99.90;;;;;;5072336;28;20195;-84
2022/09/27 07:00:52;;;;;;;3.27;1.07;;;8.90;99.90;;;;;;5073566;28;20215;-85
2022/09/27 07:03:20;;;;;;;2.13;1.00;;;9.10;99.90;;;;;;5073736;28;20206;-84
2022/09/27 07:06:00;;;;;;;1.33;1.00;;;9.10;99.90;;;;;;5073118;28;20174;-83
2022/09/27 07:08:29;;;;;;;2.27;1.30;;;9.10;99.90;;;;;;5072028;28;20175;-82
2022/09/27 07:11:01;;;;;;;3.47;1.40;;;9.10;99.90;;;;;;5071572;28;20523;-83
2022/09/27 07:13:30;;;;;;;3.60;1.03;;;9.00;99.90;;;;;;5071980;28;20195;-82
2022/09/27 07:44:33;;;;;;;1.20;0.80;;;8.80;99.90;;;;;;5156343;27;20290;-84
2022/09/27 07:46:59;;;;;;;1.17;0.70;;;8.70;99.90;;;;;;5155511;27;20606;-85
2022/09/27 08:11:20;;;;;;;2.53;0.77;;;8.90;99.90;;;;;;5156951;27;20274;-84
2022/09/27 08:29:23;;;;;;;2.30;0.70;;;8.60;99.90;;;;;;5138522;27;20269;-85
2022/09/27 08:31:53;;;;;;;2.03;0.83;;;8.60;99.90;;;;;;5119843;28;20597;-83
2022/09/27 08:34:19;;;;;;;0.73;0.60;;;8.70;99.90;;;;;;5124523;28;20192;-85
2022/09/27 08:36:45;;;;;;;1.40;0.77;;;8.80;99.90;;;;;;5137399;27;20169;-85
2022/09/27 08:39:10;;;;;;;3.13;1.10;;;9.00;99.90;;;;;;5134344;28;20639;-84
2022/09/27 08:42:03;;;;;;;2.77;0.83;;;9.30;99.90;;;;;;5135530;27;20178;-83
2022/09/27 08:45:01;;;;;;;1.53;1.00;;;9.60;99.90;;;;;;5135107;28;20202;-84
2022/09/27 08:47:59;;;;;;;2.43;0.80;;;10.30;99.90;;;;;;5135291;28;20237;-82
2022/09/27 08:50:34;;;;;;;7.30;1.33;;;11.90;99.90;;;;;;5135264;28;20178;-84
2022/09/27 08:53:03;;;;;;;1.53;0.63;;;11.90;99.90;;;;;;5135495;28;20573;-84
2022/09/27 08:55:40;;;;;;;1.00;0.77;;;12.20;99.90;;;;;;5134096;28;20347;-85
2022/09/27 08:58:25;;;;;;;1.10;0.60;;;11.90;99.90;;;;;;5133614;28;20209;-84
2022/09/27 09:00:54;;;;;;;1.40;0.70;;;11.50;99.90;;;;;;5134051;28;20163;-85
2022/09/27 09:03:26;;;;;;;4.83;1.10;;;10.50;99.90;;;;;;5134662;28;20181;-85
2022/09/27 09:06:07;;;;;;;1.90;0.63;;;10.50;99.90;;;;;;5135592;27;20168;-84
2022/09/27 09:08:51;;;;;;;0.70;0.67;;;10.10;99.90;;;;;;5135683;27;20263;-84
2022/09/27 09:14:11;;;;;;;1.13;0.57;;;9.70;99.90;;;;;;5138165;28;20220;-83
2022/09/27 09:16:59;;;;;;;0.70;0.60;;;9.60;99.90;;;;;;5135814;28;20179;-83
2022/09/27 09:19:38;;;;;;;0.90;0.60;;;9.40;99.90;;;;;;5137854;27;20281;-85
2022/09/27 09:22:27;;;;;;;1.20;0.60;;;9.30;99.90;;;;;;5136335;28;20238;-84
2022/09/27 09:25:14;;;;;;;1.20;1.10;;;9.10;99.90;;;;;;5136710;28;20699;-79
2022/09/27 09:28:05;;;;;;;0.67;0.67;;;9.00;99.90;;;;;;5147205;28;20211;-79
2022/09/27 09:30:56;;;;;;;0.97;0.50;;;8.80;99.90;;;;;;5150544;28;20177;-85
2022/09/27 09:33:34;;;;;;;0.93;0.70;;;8.40;99.90;;;;;;5145878;28;20175;-83
2022/09/27 09:36:26;;;;;;;1.13;0.50;;;8.10;99.90;;;;;;5135482;28;20179;-84
2022/09/27 09:39:12;;;;;;;0.40;0.40;;;8.00;99.90;;;;;;5130615;28;20518;-83
2022/09/27 09:42:04;;;;;;;1.13;0.80;;;7.60;99.90;;;;;;5119419;28;20173;-83
2022/09/27 09:44:47;;;;;;;1.43;0.80;;;7.40;99.90;;;;;;5115690;28;20300;-82
2022/09/27 09:47:40;;;;;;;2.33;0.90;;;7.40;99.90;;;;;;5119095;28;20634;-83
2022/09/27 09:50:28;;;;;;;6.63;4.70;;;7.30;99.90;;;;;;5119558;28;20164;-84
2022/09/27 09:53:34;;;;;;;1.83;0.90;;;7.30;99.90;;;;;;5118267;28;20181;-83
2022/09/27 09:56:32;;;;;;;3.13;1.70;;;7.30;99.90;;;;;;5107635;28;20183;-84
2022/09/27 09:59:32;;;;;;;1.10;0.90;;;7.30;99.90;;;;;;5117279;28;20188;-83
2022/09/27 10:02:12;;;;;;;1.53;1.07;;;7.30;99.90;;;;;;5116113;28;20271;-85
2022/09/27 10:04:38;;;;;;;0.90;0.80;;;7.40;99.90;;;;;;5118076;28;20203;-82
2022/09/27 10:07:05;;;;;;;1.43;0.77;;;7.60;99.90;;;;;;5119438;28;20255;-83
2022/09/27 10:09:32;;;;;;;1.03;0.80;;;7.80;99.90;;;;;;5119773;28;20159;-83
2022/09/27 10:11:58;;;;;;;0.93;0.90;;;8.50;99.90;;;;;;5121205;28;20176;-85
2022/09/27 10:14:26;;;;;;;0.67;0.60;;;10.30;99.90;;;;;;5119717;28;20736;-83
2022/09/27 10:16:58;;;;;;;0.60;0.60;;;10.70;99.90;;;;;;5116367;28;20168;-84
2022/09/27 10:19:31;;;;;;;1.50;0.80;;;10.70;99.90;;;;;;5118177;28;20173;-83
2022/09/27 10:22:02;;;;;;;8.77;7.00;;;10.50;99.90;;;;;;5118273;28;20656;-84
2022/09/27 10:24:28;;;;;;;19.37;14.03;;;10.20;99.90;;;;;;5123420;28;20191;-82
2022/09/27 10:26:59;;;;;;;0.63;0.63;;;10.20;99.90;;;;;;5120977;28;20203;-84
2022/09/27 10:29:34;;;;;;;2.23;1.13;;;9.80;99.90;;;;;;5119023;28;20542;-84
2022/09/27 10:32:03;;;;;;;5.87;2.83;;;9.80;99.90;;;;;;5119121;28;20658;-84
2022/09/27 10:34:37;;;;;;;14.67;7.40;;;10.50;99.90;;;;;;5120708;28;20227;-85
2022/09/27 10:37:05;;;;;;;1.10;0.90;;;11.00;99.90;;;;;;5123273;28;20261;-85
2022/09/27 10:39:31;;;;;;;1.47;0.80;;;11.20;99.90;;;;;;5121881;28;20693;-83
2022/09/27 10:41:57;;;;;;;1.60;0.80;;;11.10;99.90;;;;;;5122336;28;20172;-84
2022/09/27 10:44:29;;;;;;;0.70;0.53;;;11.30;99.90;;;;;;5121178;28;20541;-85
2022/09/27 10:47:21;;;;;;;11.63;4.63;;;11.10;99.90;;;;;;5120332;28;20716;-84
2022/09/27 10:49:51;;;;;;;3.37;1.50;;;10.90;99.90;;;;;;5111012;28;20215;-84
2022/09/27 10:52:20;;;;;;;0.70;0.60;;;10.40;99.90;;;;;;5118035;28;20187;-86
2022/09/27 10:54:59;;;;;;;2.53;1.17;;;9.90;99.90;;;;;;5119138;28;20278;-85
2022/09/27 10:57:27;;;;;;;4.90;2.60;;;9.80;99.90;;;;;;5121076;28;20619;-84
2022/09/27 11:00:22;;;;;;;5.37;4.43;;;9.70;99.90;;;;;;5118714;28;20645;-85
2022/09/27 11:02:54;;;;;;;1.23;0.90;;;10.40;99.90;;;;;;5118273;28;20195;-85
2022/09/27 11:05:26;;;;;;;5.10;3.93;;;11.80;99.90;;;;;;5119745;28;20260;-84
2022/09/27 11:07:57;;;;;;;2.03;0.83;;;12.70;99.90;;;;;;5119786;28;20621;-84
2022/09/27 11:10:27;;;;;;;2.00;1.43;;;12.90;99.90;;;;;;5120089;28;20171;-83
2022/09/27 11:13:14;;;;;;;1.43;0.90;;;12.40;99.90;;;;;;5119075;28;20148;-85
2022/09/27 11:15:52;;;;;;;2.83;2.57;;;11.60;99.90;;;;;;5118536;28;20201;-84
2022/09/27 11:18:40;;;;;;;12.03;7.87;;;11.10;99.90;;;;;;5119722;28;20232;-84
2022/09/27 11:21:24;;;;;;;4.57;1.37;;;10.70;99.90;;;;;;5120056;28;20163;-86
2022/09/27 11:24:12;;;;;;;0.87;0.60;;;11.50;99.90;;;;;;5121022;28;20649;-85
2022/09/27 11:26:51;;;;;;;8.10;6.13;;;11.60;99.90;;;;;;5119965;28;20163;-84
2022/09/27 11:29:24;;;;;;;8.63;5.17;;;12.60;99.90;;;;;;5118632;28;20284;-85
2022/09/27 11:31:50;;;;;;;7.90;4.73;;;13.40;99.90;;;;;;5119057;28;20499;-84
2022/09/27 11:34:42;;;;;;;11.43;7.27;;;13.90;99.90;;;;;;5117882;28;20661;-84
2022/09/27 11:37:44;;;;;;;2.33;1.10;;;13.90;99.90;;;;;;5119632;28;20175;-83
2022/09/27 11:40:47;;;;;;;4.57;0.97;;;13.10;99.90;;;;;;5119539;28;20180;-83
2022/09/27 11:43:16;;;;;;;1.70;0.90;;;12.20;99.90;;;;;;5117784;28;20202;-83
2022/09/27 11:46:09;;;;;;;1.83;1.33;;;11.90;99.90;;;;;;5119492;28;20330;-83
2022/09/27 11:49:02;;;;;;;1.33;0.70;;;11.90;99.90;;;;;;5117571;28;20624;-84
2022/09/27 11:51:46;;;;;;;2.00;0.87;;;12.00;99.90;;;;;;5119032;28;20574;-84
2022/09/27 11:54:23;;;;;;;1.00;0.70;;;12.00;99.90;;;;;;5118408;28;20198;-83
2022/09/27 11:57:11;;;;;;;1.90;0.80;;;11.90;99.90;;;;;;5119524;28;20168;-83
2022/09/27 11:59:39;;;;;;;2.77;0.73;;;11.90;99.90;;;;;;5118659;28;20176;-85
2022/09/27 12:02:38;;;;;;;1.97;0.83;;;11.80;99.90;;;;;;5118134;28;20204;-83
2022/09/27 12:05:48;;;;;;;2.87;0.93;;;11.60;99.90;;;;;;5119367;28;20195;-84
2022/09/27 12:08:47;;;;;;;2.03;0.80;;;11.30;99.90;;;;;;5085200;28;20250;-84
2022/09/27 12:11:37;;;;;;;0.77;0.63;;;11.10;99.90;;;;;;5120215;28;20257;-83
2022/09/27 12:14:31;;;;;;;2.50;0.90;;;10.80;99.90;;;;;;5117754;28;20215;-81
2022/09/27 12:16:57;;;;;;;1.63;0.70;;;10.80;99.90;;;;;;5098666;28;20554;-83
2022/09/27 12:19:30;;;;;;;2.20;1.00;;;10.60;99.90;;;;;;5118001;28;20176;-84
2022/09/27 12:21:59;;;;;;;1.87;1.17;;;10.50;99.90;;;;;;5119040;28;20203;-86
2022/09/27 12:24:27;;;;;;;2.30;1.07;;;10.40;99.90;;;;;;5119084;28;20183;-83
2022/09/27 12:26:57;;;;;;;2.90;1.73;;;10.40;99.90;;;;;;5117117;28;20532;-82
2022/09/27 12:29:35;;;;;;;4.73;2.07;;;10.40;99.90;;;;;;5117791;28;20192;-84
2022/09/27 12:32:24;;;;;;;5.63;2.40;;;10.60;99.90;;;;;;5116856;28;20160;-83
2022/09/27 12:35:12;;;;;;;4.17;1.70;;;11.60;99.90;;;;;;5115781;28;20199;-83
2022/09/27 12:37:44;;;;;;;2.87;1.47;;;12.20;99.90;;;;;;5117513;28;20203;-85
2022/09/27 12:40:31;;;;;;;3.70;1.53;;;12.50;99.90;;;;;;5117498;28;20617;-85
2022/09/27 12:43:20;;;;;;;2.53;1.37;;;13.20;99.90;;;;;;5117020;28;20172;-83
2022/09/27 12:46:16;;;;;;;2.03;1.30;;;14.10;99.90;;;;;;5116183;28;20180;-83
2022/09/27 12:48:59;;;;;;;2.53;1.80;;;14.00;99.90;;;;;;5116871;28;20179;-84
2022/09/27 12:51:35;;;;;;;3.97;1.67;;;12.90;99.90;;;;;;5116656;28;20164;-83
2022/09/27 12:54:38;;;;;;;2.40;1.17;;;11.60;99.90;;;;;;5117144;28;20197;-83
2022/09/27 12:57:25;;;;;;;1.53;0.73;;;11.30;99.90;;;;;;5118218;28;20152;-84
2022/09/27 13:00:23;;;;;;;5.27;3.17;;;10.40;99.90;;;;;;5117145;28;20660;-84
2022/09/27 13:03:13;;;;;;;2.83;0.70;;;10.00;99.90;;;;;;5118051;28;20231;-83
2022/09/27 13:05:57;;;;;;;1.63;0.97;;;9.70;99.90;;;;;;5116507;28;20605;-82
2022/09/27 13:09:11;;;;;;;2.93;0.90;;;9.50;99.90;;;;;;5117778;28;20188;-83
2022/09/27 13:11:50;;;;;;;2.87;0.80;;;9.10;99.90;;;;;;5108474;28;20179;-83
2022/09/27 13:14:25;;;;;;;0.80;0.60;;;9.00;99.90;;;;;;5119008;28;20223;-84
2022/09/27 13:16:51;;;;;;;0.87;0.60;;;9.00;99.90;;;;;;5121673;28;20166;-84
2022/09/27 13:19:42;;;;;;;0.80;0.60;;;8.90;99.90;;;;;;5122125;28;20210;-84
2022/09/27 13:22:26;;;;;;;1.60;0.80;;;8.90;99.90;;;;;;5122051;28;20258;-83
2022/09/27 13:24:52;;;;;;;2.43;0.70;;;9.00;99.90;;;;;;5120560;28;20669;-84
2022/09/27 13:27:22;;;;;;;1.70;0.57;;;9.30;99.90;;;;;;5119331;28;20190;-82
2022/09/27 13:29:48;;;;;;;1.80;0.80;;;9.60;99.90;;;;;;5123508;28;20664;-82
2022/09/27 13:32:26;;;;;;;2.57;0.87;;;9.90;99.90;;;;;;5122821;28;20673;-81
2022/09/27 13:34:55;;;;;;;1.40;0.90;;;10.80;99.90;;;;;;5120687;28;20203;-82
2022/09/27 13:37:38;;;;;;;0.77;0.60;;;12.40;99.90;;;;;;5119476;28;20633;-82
2022/09/27 13:40:20;;;;;;;1.30;0.93;;;13.40;99.90;;;;;;5119834;28;20171;-83
2022/09/27 13:42:55;;;;;;;1.50;0.90;;;13.80;99.90;;;;;;5118971;28;20163;-82
2022/09/27 13:45:33;;;;;;;0.93;0.70;;;14.60;99.90;;;;;;5119699;27;20197;-82
2022/09/27 13:48:01;;;;;;;1.13;0.77;;;15.30;99.90;;;;;;5118252;28;20260;-82
2022/09/27 13:50:29;;;;;;;2.07;0.83;;;14.60;99.90;;;;;;5119594;28;20173;-81
2022/09/27 13:53:07;;;;;;;1.60;0.90;;;14.10;99.90;;;;;;5119254;28;20222;-82
2022/09/27 13:55:48;;;;;;;1.53;0.90;;;13.50;99.90;;;;;;5119657;28;20214;-81
2022/09/27 13:58:46;;;;;;;0.70;0.70;;;12.60;99.90;;;;;;5119484;28;20200;-82
2022/09/27 14:01:27;;;;;;;0.80;0.70;;;11.90;99.90;;;;;;5118416;28;20171;-82
2022/09/27 14:03:56;;;;;;;2.50;1.10;;;11.30;99.90;;;;;;5120647;28;20225;-81
2022/09/27 14:06:31;;;;;;;2.13;0.90;;;10.80;99.90;;;;;;5119607;28;20537;-82
2022/09/27 14:09:16;;;;;;;0.83;0.70;;;10.40;99.90;;;;;;5119824;28;20198;-84
2022/09/27 14:11:47;;;;;;;1.57;0.70;;;10.20;99.90;;;;;;5120593;28;20172;-81
2022/09/27 14:14:21;;;;;;;1.30;0.90;;;10.20;99.90;;;;;;5119108;28;20187;-81
2022/09/27 14:16:46;;;;;;;6.77;1.70;;;10.20;99.90;;;;;;5120063;28;20160;-82
2022/09/27 14:19:24;;;;;;;1.80;0.90;;;10.10;99.90;;;;;;5120111;28;20174;-81
2022/09/27 14:21:51;;;;;;;2.63;0.90;;;10.00;99.90;;;;;;5120617;28;20155;-82
2022/09/27 14:24:20;;;;;;;2.00;1.00;;;10.10;99.90;;;;;;5120778;28;20199;-81
2022/09/27 14:26:46;;;;;;;2.47;1.00;;;10.10;99.90;;;;;;5120121;28;20171;-83
2022/09/27 14:29:21;;;;;;;1.10;0.70;;;10.10;99.90;;;;;;5119795;28;20211;-83
2022/09/27 14:32:02;;;;;;;1.67;1.00;;;10.30;99.90;;;;;;5120419;28;20204;-82
2022/09/27 14:34:28;;;;;;;5.57;0.90;;;10.50;99.90;;;;;;5120431;28;20278;-83
2022/09/27 14:39:40;;;;;;;1.83;1.07;;;10.50;99.90;;;;;;5135674;28;20147;-82
2022/09/27 14:42:20;;;;;;;1.20;0.93;;;10.10;99.90;;;;;;5139313;28;20188;-82
2022/09/27 14:44:47;;;;;;;1.33;1.10;;;10.10;99.90;;;;;;5134771;28;20221;-83
2022/09/27 14:47:25;;;;;;;2.97;1.10;;;10.00;99.90;;;;;;5128265;28;20180;-82
2022/09/27 14:49:53;;;;;;;1.60;1.27;;;10.20;99.90;;;;;;5117936;28;20327;-82
2022/09/27 14:52:30;;;;;;;1.53;1.20;;;10.40;99.90;;;;;;5118997;28;20283;-81
2022/09/27 14:55:04;;;;;;;2.57;1.53;;;10.60;99.90;;;;;;5118838;28;20202;-83
2022/09/27 14:57:32;;;;;;;4.70;1.30;;;10.60;99.90;;;;;;5119393;28;20175;-82
2022/09/27 15:00:15;;;;;;;6.10;1.30;;;10.30;99.90;;;;;;5119164;28;20176;-83
2022/09/27 15:02:42;;;;;;;1.80;1.07;;;10.20;99.90;;;;;;5119196;28;20155;-82
2022/09/27 15:05:20;;;;;;;1.63;0.90;;;10.00;99.90;;;;;;5117939;28;20206;-82
2022/09/27 15:07:47;;;;;;;2.53;1.27;;;9.70;99.90;;;;;;5117610;28;20208;-82
2022/09/27 15:10:19;;;;;;;2.57;1.80;;;9.70;99.90;;;;;;5117543;28;20512;-82
2022/09/27 15:12:48;;;;;;;3.27;1.77;;;9.60;99.90;;;;;;5117998;28;20202;-82
2022/09/27 15:15:18;;;;;;;2.00;1.57;;;9.50;99.90;;;;;;5118798;28;20205;-83
2022/09/27 15:17:45;;;;;;;2.03;1.20;;;9.50;99.90;;;;;;5118150;28;20163;-83
2022/09/27 15:20:29;;;;;;;1.97;1.23;;;9.40;99.90;;;;;;5117717;28;20180;-83
2022/09/27 15:22:58;;;;;;;4.10;1.73;;;9.40;99.90;;;;;;5118080;28;20184;-83
2022/09/27 15:25:35;;;;;;;1.20;1.00;;;9.50;99.90;;;;;;5118176;28;20207;-82
2022/09/27 15:28:10;;;;;;;4.80;2.30;;;9.50;99.90;;;;;;5118105;28;20216;-82
2022/09/27 15:30:39;;;;;;;2.97;1.83;;;9.50;99.90;;;;;;5120222;28;20302;-82
2022/09/27 15:33:18;;;;;;;8.00;1.80;;;9.50;99.90;;;;;;5120648;28;20248;-82
2022/09/27 15:35:52;;;;;;;2.33;1.87;;;9.60;99.90;;;;;;5119331;28;20761;-84
2022/09/27 15:38:26;;;;;;;3.13;2.30;;;9.60;99.90;;;;;;5120480;28;20179;-83
2022/09/27 15:40:51;;;;;;;12.83;7.10;;;9.50;99.90;;;;;;5121130;28;20526;-84
2022/09/27 15:43:28;;;;;;;15.67;12.50;;;9.50;99.90;;;;;;5120966;28;20209;-84
2022/09/27 15:45:53;;;;;;;4.57;1.80;;;9.60;99.90;;;;;;5119538;28;20224;-83
2022/09/27 15:48:20;;;;;;;3.97;1.20;;;9.50;99.90;;;;;;5119787;28;20204;-83
2022/09/27 15:50:47;;;;;;;2.17;1.90;;;9.40;99.90;;;;;;5121489;28;20197;-83
2022/09/27 15:53:32;;;;;;;1.70;1.50;;;9.30;99.90;;;;;;5121520;28;20172;-84
2022/09/27 15:55:59;;;;;;;2.83;2.30;;;9.30;99.90;;;;;;5120096;28;20651;-83
2022/09/27 15:58:25;;;;;;;3.73;1.80;;;9.20;99.90;;;;;;5120362;28;20179;-83
2022/09/27 16:00:55;;;;;;;2.33;1.63;;;9.20;99.90;;;;;;5119868;28;20186;-82
2022/09/27 16:03:23;;;;;;;3.50;2.10;;;9.00;99.90;;;;;;5121458;28;20164;-83
2022/09/27 16:05:48;;;;;;;6.90;4.07;;;9.00;99.90;;;;;;5120098;28;20524;-84
2022/09/27 16:08:14;;;;;;;9.03;5.30;;;9.00;99.90;;;;;;5121398;28;20209;-84
2022/09/27 16:10:45;;;;;;;3.27;1.87;;;9.00;99.90;;;;;;5121637;28;20183;-84
2022/09/27 16:13:11;;;;;;;1.37;1.27;;;8.90;99.90;;;;;;5121636;28;20667;-84
2022/09/27 16:15:36;;;;;;;2.80;1.40;;;8.80;99.90;;;;;;5122129;28;20197;-82
2022/09/27 16:18:03;;;;;;;4.90;1.00;;;8.70;99.90;;;;;;5120237;28;20176;-83
2022/09/27 16:20:30;;;;;;;1.20;0.93;;;8.50;99.90;;;;;;5120618;28;20240;-83
2022/09/27 16:22:56;;;;;;;1.10;1.00;;;8.50;99.90;;;;;;5120315;28;20172;-81
2022/09/27 16:25:23;;;;;;;3.10;1.40;;;8.30;99.90;;;;;;5120016;28;20737;-83
2022/09/27 16:27:49;;;;;;;4.03;2.37;;;8.30;99.90;;;;;;5118502;28;20305;-83
2022/09/27 16:30:16;;;;;;;3.50;1.73;;;8.20;99.90;;;;;;5120039;28;20232;-83
2022/09/27 16:32:43;;;;;;;7.23;2.60;;;8.20;99.90;;;;;;5120107;28;20164;-82
2022/09/27 16:35:10;;;;;;;7.13;4.20;;;8.30;99.90;;;;;;5120381;28;20197;-82
2022/09/27 16:37:37;;;;;;;6.97;4.27;;;8.20;99.90;;;;;;5119767;28;20166;-82
2022/09/27 16:40:04;;;;;;;5.90;3.10;;;8.20;99.90;;;;;;5116961;28;20270;-82
2022/09/27 16:42:30;;;;;;;3.60;2.33;;;8.10;99.90;;;;;;5116897;28;20594;-82
2022/09/27 16:44:55;;;;;;;3.20;2.30;;;8.10;99.90;;;;;;5117339;28;20205;-82
2022/09/27 16:47:21;;;;;;;3.37;2.40;;;8.10;99.90;;;;;;5118420;28;20183;-81
2022/09/27 16:52:32;;;;;;;2.20;2.00;;;8.10;99.90;;;;;;5123424;28;20170;-83
2022/09/27 16:54:58;;;;;;;3.50;1.60;;;8.10;99.90;;;;;;5123995;28;20597;-82
2022/09/27 16:57:25;;;;;;;3.43;2.03;;;8.00;99.90;;;;;;5122705;28;20316;-82
2022/09/27 16:59:51;;;;;;;3.97;3.00;;;8.00;99.90;;;;;;5123554;28;20171;-82
2022/09/27 17:02:16;;;;;;;2.10;1.80;;;7.90;99.90;;;;;;5120170;28;20176;-81
2022/09/27 17:04:42;;;;;;;5.87;4.00;;;7.90;99.90;;;;;;5121112;28;20204;-82
2022/09/27 17:07:08;;;;;;;2.57;1.90;;;7.90;99.90;;;;;;5121872;28;20176;-82
2022/09/27 17:09:34;;;;;;;4.90;3.70;;;7.90;99.90;;;;;;5121597;28;20208;-84
2022/09/27 17:11:59;;;;;;;5.40;4.47;;;7.90;99.90;;;;;;5122108;28;20180;-84
2022/09/27 17:14:26;;;;;;;2.40;1.97;;;7.90;99.90;;;;;;5123198;28;20196;-82
2022/09/27 17:16:52;;;;;;;4.27;3.13;;;7.90;99.90;;;;;;5123513;28;20239;-84
2022/09/27 17:19:18;;;;;;;4.63;3.43;;;7.90;99.90;;;;;;5121832;28;20179;-84
2022/09/27 17:21:44;;;;;;;7.83;4.87;;;7.90;99.90;;;;;;5122986;28;20194;-84
2022/09/27 17:24:10;;;;;;;24.40;14.70;;;7.80;99.90;;;;;;5122752;28;20200;-85
2022/09/27 17:26:36;;;;;;;8.27;5.77;;;7.80;99.90;;;;;;5122607;28;20186;-82
2022/09/27 17:29:03;;;;;;;3.90;2.80;;;7.70;99.90;;;;;;5121873;28;20202;-85
2022/09/27 17:31:35;;;;;;;5.57;3.60;;;7.70;99.90;;;;;;5122651;28;20177;-84
2022/09/27 17:34:02;;;;;;;13.83;8.63;;;7.70;99.90;;;;;;5120186;28;20188;-84
2022/09/27 17:36:33;;;;;;;1.87;1.30;;;7.70;99.90;;;;;;5120785;28;20537;-83
2022/09/27 17:38:59;;;;;;;4.10;3.00;;;7.70;99.90;;;;;;5121426;28;20417;-82
2022/09/27 17:41:27;;;;;;;2.93;1.77;;;7.70;99.90;;;;;;5121302;28;20191;-85
2022/09/27 17:43:57;;;;;;;7.47;5.10;;;7.60;99.90;;;;;;5122248;28;20198;-83
2022/09/27 17:46:28;;;;;;;3.27;2.00;;;7.60;99.90;;;;;;5122930;28;20160;-84
2022/09/27 17:51:41;;;;;;;2.10;1.63;;;7.60;99.90;;;;;;5122909;28;20186;-83
2022/09/27 17:54:09;;;;;;;2.23;1.37;;;7.60;99.90;;;;;;5120992;28;20219;-83
2022/09/27 17:56:39;;;;;;;2.70;1.13;;;7.60;99.90;;;;;;5122767;28;20179;-84
2022/09/27 17:59:06;;;;;;;1.23;0.93;;;7.60;99.90;;;;;;5123756;28;20181;-85
2022/09/27 18:01:33;;;;;;;1.20;1.10;;;7.70;99.90;;;;;;5122416;28;20180;-84
2022/09/27 18:04:00;;;;;;;1.87;1.37;;;7.60;99.90;;;;;;5121436;28;20192;-85
2022/09/27 18:06:27;;;;;;;2.83;1.70;;;7.70;99.90;;;;;;5122905;28;20172;-84
2022/09/27 18:08:53;;;;;;;2.87;1.70;;;7.70;99.90;;;;;;5121297;28;20195;-84
2022/09/27 18:11:28;;;;;;;1.63;1.20;;;7.70;99.90;;;;;;5120968;28;20217;-84
2022/09/27 18:13:59;;;;;;;3.30;1.93;;;7.60;99.90;;;;;;5122765;28;20649;-85
2022/09/27 18:16:29;;;;;;;0.80;0.80;;;7.60;99.90;;;;;;5122049;28;20163;-85
2022/09/27 18:18:57;;;;;;;1.53;1.43;;;7.60;99.90;;;;;;5121793;28;20216;-84
2022/09/27 18:21:23;;;;;;;0.80;0.70;;;7.50;99.90;;;;;;5122049;28;20455;-84
2022/09/27 18:23:50;;;;;;;1.20;1.00;;;7.50;99.90;;;;;;5122438;28;20665;-84
2022/09/27 18:26:17;;;;;;;0.80;0.80;;;7.40;99.90;;;;;;5122673;28;20176;-84
2022/09/27 18:28:43;;;;;;;1.13;0.80;;;7.40;99.90;;;;;;5121900;28;20204;-82
2022/09/27 18:31:12;;;;;;;0.70;0.70;;;7.40;99.90;;;;;;5122584;28;20183;-84
2022/09/27 18:33:38;;;;;;;0.60;0.60;;;7.40;99.90;;;;;;5121031;28;20177;-84
2022/09/27 18:36:24;;;;;;;1.17;1.07;;;7.40;99.90;;;;;;5120769;28;20180;-85
2022/09/27 18:38:53;;;;;;;2.10;1.30;;;7.30;99.90;;;;;;5119946;28;20175;-84
2022/09/27 18:41:20;;;;;;;1.13;1.00;;;7.30;99.90;;;;;;5119613;28;20650;-84
2022/09/27 18:43:46;;;;;;;1.17;0.97;;;7.30;99.90;;;;;;5121084;28;20240;-83
2022/09/27 18:46:15;;;;;;;1.57;1.20;;;7.40;99.90;;;;;;5120984;28;20167;-83
2022/09/27 18:48:42;;;;;;;1.60;1.00;;;7.40;99.90;;;;;;5119664;28;20225;-83
2022/09/27 18:51:08;;;;;;;2.03;1.07;;;7.50;99.90;;;;;;5120052;28;20168;-83
2022/09/27 18:53:35;;;;;;;4.13;1.17;;;7.40;99.90;;;;;;5119659;28;20184;-84
2022/09/27 18:56:10;;;;;;;2.50;1.23;;;7.50;99.90;;;;;;5119457;28;20239;-84
2022/09/27 18:58:37;;;;;;;1.90;1.40;;;7.50;99.90;;;;;;5120648;28;20519;-84
2022/09/27 19:01:05;;;;;;;3.27;1.90;;;7.50;99.90;;;;;;5120309;28;20562;-84
2022/09/27 19:03:32;;;;;;;1.60;1.47;;;7.50;99.90;;;;;;5120385;28;20652;-84
2022/09/27 19:06:00;;;;;;;3.07;1.40;;;7.50;99.90;;;;;;5120304;28;20197;-84
2022/09/27 19:08:26;;;;;;;1.20;1.10;;;7.60;99.90;;;;;;5121131;28;20278;-85
2022/09/27 19:10:52;;;;;;;1.63;1.10;;;7.60;99.90;;;;;;5121397;28;20643;-83
2022/09/27 19:13:18;;;;;;;1.10;1.00;;;7.70;99.90;;;;;;5120803;28;20202;-85
2022/09/27 19:15:56;;;;;;;1.87;1.00;;;7.70;99.90;;;;;;5119952;28;20191;-84
2022/09/27 19:18:23;;;;;;;2.50;1.10;;;7.70;99.90;;;;;;5121729;28;20160;-85
2022/09/27 19:20:49;;;;;;;4.90;1.00;;;7.70;99.90;;;;;;5119581;28;20172;-85
2022/09/27 19:23:16;;;;;;;1.97;1.13;;;7.70;99.90;;;;;;5119167;28;20202;-84
2022/09/27 19:25:41;;;;;;;2.23;1.00;;;7.80;99.90;;;;;;5119128;28;20192;-85
2022/09/27 19:28:07;;;;;;;2.50;1.10;;;;;;;;;;5120451;28;20574;-84
2022/09/27 19:30:33;;;;;;;1.67;1.00;;;7.70;99.90;;;;;;5121488;28;20255;-85
2022/09/27 19:32:58;;;;;;;1.63;1.10;;;7.70;99.90;;;;;;5122298;28;20201;-83
2022/09/27 19:35:24;;;;;;;2.03;1.00;;;7.70;99.90;;;;;;5119786;28;20196;-84
2022/09/27 19:37:50;;;;;;;1.27;1.17;;;7.70;99.90;;;;;;5120127;28;20183;-85
2022/09/27 19:40:16;;;;;;;1.20;1.10;;;7.70;99.90;;;;;;5127045;28;20179;-85
2022/09/27 19:42:42;;;;;;;1.90;1.00;;;7.70;99.90;;;;;;5130258;28;20547;-83
2022/09/27 19:45:08;;;;;;;1.23;1.00;;;7.70;99.90;;;;;;5130138;28;20235;-84
2022/09/27 19:47:34;;;;;;;3.87;2.47;;;7.70;99.90;;;;;;5123411;28;20191;-84
2022/09/27 19:49:59;;;;;;;2.10;1.23;;;7.70;99.90;;;;;;5119848;28;20618;-84
2022/09/27 19:52:25;;;;;;;4.20;2.13;;;7.70;99.90;;;;;;5120465;28;20536;-85
2022/09/27 19:54:51;;;;;;;3.20;2.10;;;;;;;;;;5120278;28;20219;-83
2022/09/27 19:57:17;;;;;;;2.07;1.30;;;7.70;99.90;;;;;;5118639;28;20187;-83
2022/09/27 19:59:43;;;;;;;2.20;1.07;;;7.70;99.90;;;;;;5119033;28;20191;-83
2022/09/27 20:02:09;;;;;;;1.00;0.80;;;7.60;99.90;;;;;;5120203;28;20184;-82
2022/09/27 20:04:35;;;;;;;5.27;2.80;;;7.60;99.90;;;;;;5118029;28;20578;-83
2022/09/27 20:07:01;;;;;;;2.17;1.80;;;7.60;99.90;;;;;;5120121;28;20676;-84
2022/09/27 20:09:26;;;;;;;1.47;1.30;;;7.60;99.90;;;;;;5119715;28;20205;-84
2022/09/27 20:11:52;;;;;;;0.80;0.80;;;7.60;99.90;;;;;;5119496;28;20220;-82
2022/09/27 20:14:18;;;;;;;1.03;0.90;;;7.60;99.90;;;;;;5118542;28;20196;-84
2022/09/27 20:16:43;;;;;;;1.03;0.70;;;7.70;99.90;;;;;;5119430;28;20179;-84
2022/09/27 20:19:09;;;;;;;1.10;1.00;;;7.70;99.90;;;;;;5118561;28;20686;-84
2022/09/27 20:21:35;;;;;;;1.70;0.90;;;7.60;99.90;;;;;;5117318;28;20543;-84
2022/09/27 20:24:03;;;;;;;1.57;0.80;;;7.70;99.90;;;;;;5117483;28;20209;-84
2022/09/27 20:26:30;;;;;;;1.50;1.00;;;7.70;99.90;;;;;;5118849;28;20179;-84
2022/09/27 20:28:58;;;;;;;1.77;1.30;;;7.70;99.90;;;;;;5117272;28;20215;-83
2022/09/27 20:31:26;;;;;;;0.97;0.83;;;7.70;99.90;;;;;;5117578;28;20180;-84
2022/09/27 20:33:51;;;;;;;0.97;0.87;;;7.70;99.90;;;;;;5118127;28;20853;-84
2022/09/27 20:36:30;;;;;;;0.80;0.80;;;7.70;99.90;;;;;;5117424;28;20182;-83
2022/09/27 20:39:01;;;;;;;3.17;1.30;;;7.80;99.90;;;;;;5118174;28;20235;-84
2022/09/27 20:41:28;;;;;;;1.17;0.87;;;7.70;99.90;;;;;;5118068;28;20171;-83
2022/09/27 20:43:56;;;;;;;1.87;0.90;;;7.80;99.90;;;;;;5117858;28;20200;-83
2022/09/27 20:46:23;;;;;;;1.57;0.83;;;7.80;99.90;;;;;;5117353;28;20183;-84
2022/09/27 20:48:52;;;;;;;0.77;0.70;;;7.80;99.90;;;;;;5117481;28;20239;-84
2022/09/27 20:51:18;;;;;;;1.03;0.90;;;7.80;99.90;;;;;;5116665;28;20177;-84
2022/09/27 20:53:44;;;;;;;0.97;0.90;;;;;;;;;;5116024;28;20229;-84
2022/09/27 20:56:39;;;;;;;1.47;0.90;;;7.80;99.90;;;;;;5115243;28;20184;-85
2022/09/27 20:59:16;;;;;;;1.00;0.90;;;7.90;99.90;;;;;;5115296;28;20183;-84
2022/09/27 21:01:44;;;;;;;1.10;1.00;;;7.80;99.90;;;;;;5116667;28;20746;-84
2022/09/27 21:04:11;;;;;;;1.00;0.90;;;7.80;99.90;;;;;;5119580;28;20196;-84
2022/09/27 21:06:37;;;;;;;1.30;0.90;;;7.90;99.90;;;;;;5117646;28;20195;-84
2022/09/27 21:09:05;;;;;;;2.20;1.83;;;7.90;99.90;;;;;;5118062;28;20279;-84
2022/09/27 21:11:30;;;;;;;1.20;1.00;;;7.90;99.90;;;;;;5117978;28;20177;-84